sensor_id;sensor_type;location;lat;lon;timestamp;pressure;altitude;pressure_sealevel;temperature;humidity
16030;BME280;34770;49.272;11.070;2023-06-14T00:02:16;97270.09;;;14.73;53.51
16030;BME280;34770;49.272;11.070;2023-06-14T00:04:41;97301.53;;;14.99;52.78
16030;BME280;34770;49.272;11.070;2023-06-14T00:07:08;97302.63;;;14.82;53.34
16030;BME280;34770;49.272;11.070;2023-06-14T00:09:34;97303.50;;;14.75;53.93
16030;BME280;34770;49.272;11.070;2023-06-14T00:12:00;97306.03;;;14.92;53.26
16030;BME280;34770;49.272;11.070;2023-06-14T00:14:25;97312.69;;;14.90;52.45
16030;BME280;34770;49.272;11.070;2023-06-14T00:16:51;97281.84;;;14.81;53.02
16030;BME280;34770;49.272;11.070;2023-06-14T00:19:18;97296.13;;;14.91;52.55
16030;BME280;34770;49.272;11.070;2023-06-14T00:21:44;97291.72;;;14.90;52.28
16030;BME280;34770;49.272;11.070;2023-06-14T00:24:10;97297.88;;;14.84;52.79
16030;BME280;34770;49.272;11.070;2023-06-14T00:26:36;97283.88;;;14.87;53.01
16030;BME280;34770;49.272;11.070;2023-06-14T00:29:01;97291.38;;;14.85;52.64
16030;BME280;34770;49.272;11.070;2023-06-14T00:31:26;97282.03;;;14.72;52.54
16030;BME280;34770;49.272;11.070;2023-06-14T00:33:52;97290.09;;;14.65;53.47
16030;BME280;34770;49.272;11.070;2023-06-14T00:36:17;97294.66;;;14.73;53.45
16030;BME280;34770;49.272;11.070;2023-06-14T00:38:42;97292.44;;;14.68;52.76
16030;BME280;34770;49.272;11.070;2023-06-14T00:41:08;97265.75;;;14.47;53.54
16030;BME280;34770;49.272;11.070;2023-06-14T00:43:33;97262.19;;;14.39;53.77
16030;BME280;34770;49.272;11.070;2023-06-14T00:46:00;97288.06;;;14.51;53.92
16030;BME280;34770;49.272;11.070;2023-06-14T00:48:25;97280.72;;;14.51;54.13
16030;BME280;34770;49.272;11.070;2023-06-14T00:50:51;97285.47;;;14.58;53.84
16030;BME280;34770;49.272;11.070;2023-06-14T00:53:18;97287.72;;;14.46;53.72
16030;BME280;34770;49.272;11.070;2023-06-14T00:55:46;97288.75;;;14.45;53.73
16030;BME280;34770;49.272;11.070;2023-06-14T00:58:11;97280.22;;;14.32;53.61
16030;BME280;34770;49.272;11.070;2023-06-14T01:00:37;97287.72;;;14.38;53.76
16030;BME280;34770;49.272;11.070;2023-06-14T01:03:03;97290.44;;;14.46;53.47
16030;BME280;34770;49.272;11.070;2023-06-14T01:05:29;97285.84;;;14.46;54.16
16030;BME280;34770;49.272;11.070;2023-06-14T01:08:14;97290.09;;;14.41;54.41
16030;BME280;34770;49.272;11.070;2023-06-14T01:11:05;97291.13;;;14.32;54.55
16030;BME280;34770;49.272;11.070;2023-06-14T01:13:34;97293.00;;;14.47;54.85
16030;BME280;34770;49.272;11.070;2023-06-14T01:16:01;97296.94;;;14.45;54.56
16030;BME280;34770;49.272;11.070;2023-06-14T01:18:28;97281.41;;;14.29;54.85
16030;BME280;34770;49.272;11.070;2023-06-14T01:20:55;97288.72;;;14.21;55.17
16030;BME280;34770;49.272;11.070;2023-06-14T01:23:22;97292.13;;;14.07;56.41
16030;BME280;34770;49.272;11.070;2023-06-14T01:25:49;97287.16;;;13.62;57.82
16030;BME280;34770;49.272;11.070;2023-06-14T01:28:18;97283.09;;;13.74;57.09
16030;BME280;34770;49.272;11.070;2023-06-14T01:30:47;97287.22;;;13.78;56.81
16030;BME280;34770;49.272;11.070;2023-06-14T01:33:21;97290.59;;;13.64;57.31
16030;BME280;34770;49.272;11.070;2023-06-14T01:35:49;97291.59;;;13.71;57.02
16030;BME280;34770;49.272;11.070;2023-06-14T01:38:18;97293.13;;;13.65;57.19
16030;BME280;34770;49.272;11.070;2023-06-14T01:40:44;97298.03;;;13.54;57.27
16030;BME280;34770;49.272;11.070;2023-06-14T01:43:12;97286.28;;;13.45;57.32
16030;BME280;34770;49.272;11.070;2023-06-14T01:45:40;97284.97;;;13.57;57.50
16030;BME280;34770;49.272;11.070;2023-06-14T01:48:06;97267.50;;;13.10;57.14
16030;BME280;34770;49.272;11.070;2023-06-14T01:50:32;97301.38;;;13.31;58.01
16030;BME280;34770;49.272;11.070;2023-06-14T01:52:58;97303.75;;;13.18;57.72
16030;BME280;34770;49.272;11.070;2023-06-14T01:55:23;97292.72;;;12.94;58.87
16030;BME280;34770;49.272;11.070;2023-06-14T01:57:53;97301.75;;;13.03;59.10
16030;BME280;34770;49.272;11.070;2023-06-14T02:00:19;97308.03;;;12.95;59.45
16030;BME280;34770;49.272;11.070;2023-06-14T02:02:45;97297.63;;;12.91;59.45
16030;BME280;34770;49.272;11.070;2023-06-14T02:05:14;97296.50;;;12.67;59.72
16030;BME280;34770;49.272;11.070;2023-06-14T02:07:40;97297.53;;;12.74;59.76
16030;BME280;34770;49.272;11.070;2023-06-14T02:10:06;97297.50;;;12.66;60.30
16030;BME280;34770;49.272;11.070;2023-06-14T02:12:32;97299.91;;;12.69;59.90
16030;BME280;34770;49.272;11.070;2023-06-14T02:14:57;97289.31;;;12.33;60.60
16030;BME280;34770;49.272;11.070;2023-06-14T02:17:23;97298.72;;;12.46;60.72
16030;BME280;34770;49.272;11.070;2023-06-14T02:19:48;97292.47;;;12.46;60.57
16030;BME280;34770;49.272;11.070;2023-06-14T02:22:15;97267.88;;;12.30;60.19
16030;BME280;34770;49.272;11.070;2023-06-14T02:24:41;97300.31;;;12.49;60.07
16030;BME280;34770;49.272;11.070;2023-06-14T02:27:07;97309.34;;;12.57;60.95
16030;BME280;34770;49.272;11.070;2023-06-14T02:29:35;97302.84;;;12.25;60.74
16030;BME280;34770;49.272;11.070;2023-06-14T02:32:00;97307.56;;;12.40;60.82
16030;BME280;34770;49.272;11.070;2023-06-14T02:34:26;97308.38;;;12.41;60.62
16030;BME280;34770;49.272;11.070;2023-06-14T02:36:51;97303.34;;;12.46;61.08
16030;BME280;34770;49.272;11.070;2023-06-14T02:39:17;97300.56;;;12.38;60.82
16030;BME280;34770;49.272;11.070;2023-06-14T02:41:46;97320.00;;;12.25;61.62
16030;BME280;34770;49.272;11.070;2023-06-14T02:44:13;97319.44;;;12.21;62.05
16030;BME280;34770;49.272;11.070;2023-06-14T02:46:38;97277.13;;;11.93;61.74
16030;BME280;34770;49.272;11.070;2023-06-14T02:49:04;97320.47;;;12.20;62.34
16030;BME280;34770;49.272;11.070;2023-06-14T02:51:29;97277.84;;;11.95;62.00
16030;BME280;34770;49.272;11.070;2023-06-14T02:53:54;97307.84;;;12.11;62.99
16030;BME280;34770;49.272;11.070;2023-06-14T02:56:20;97314.16;;;11.94;62.64
16030;BME280;34770;49.272;11.070;2023-06-14T02:58:48;97322.91;;;12.06;62.78
16030;BME280;34770;49.272;11.070;2023-06-14T03:01:13;97313.66;;;12.16;62.71
16030;BME280;34770;49.272;11.070;2023-06-14T03:03:39;97311.63;;;12.18;62.07
16030;BME280;34770;49.272;11.070;2023-06-14T03:06:05;97318.78;;;12.02;63.28
16030;BME280;34770;49.272;11.070;2023-06-14T03:08:31;97311.25;;;11.96;63.40
16030;BME280;34770;49.272;11.070;2023-06-14T03:11:03;97308.72;;;11.94;63.86
16030;BME280;34770;49.272;11.070;2023-06-14T03:13:30;97313.53;;;12.00;63.27
16030;BME280;34770;49.272;11.070;2023-06-14T03:15:57;97311.97;;;11.98;63.16
16030;BME280;34770;49.272;11.070;2023-06-14T03:18:23;97327.41;;;11.97;63.03
16030;BME280;34770;49.272;11.070;2023-06-14T03:20:48;97287.81;;;11.59;63.56
16030;BME280;34770;49.272;11.070;2023-06-14T03:23:14;97325.16;;;11.75;63.22
16030;BME280;34770;49.272;11.070;2023-06-14T03:25:39;97322.72;;;11.54;63.55
16030;BME280;34770;49.272;11.070;2023-06-14T03:28:07;97331.53;;;11.56;63.23
16030;BME280;34770;49.272;11.070;2023-06-14T03:30:32;97345.66;;;11.60;63.32
16030;BME280;34770;49.272;11.070;2023-06-14T03:32:58;97345.47;;;11.71;63.49
16030;BME280;34770;49.272;11.070;2023-06-14T03:35:28;97345.19;;;11.47;63.76
16030;BME280;34770;49.272;11.070;2023-06-14T03:37:53;97337.84;;;11.39;63.92
16030;BME280;34770;49.272;11.070;2023-06-14T03:40:20;97345.88;;;11.49;63.60
16030;BME280;34770;49.272;11.070;2023-06-14T03:42:46;97348.91;;;11.46;63.99
16030;BME280;34770;49.272;11.070;2023-06-14T03:45:12;97355.97;;;11.39;64.65
16030;BME280;34770;49.272;11.070;2023-06-14T03:47:37;97352.53;;;11.37;64.16
16030;BME280;34770;49.272;11.070;2023-06-14T03:50:03;97358.69;;;11.56;64.44
16030;BME280;34770;49.272;11.070;2023-06-14T03:52:29;97368.47;;;11.67;63.91
16030;BME280;34770;49.272;11.070;2023-06-14T03:54:56;97367.59;;;11.49;64.35
16030;BME280;34770;49.272;11.070;2023-06-14T03:57:21;97358.28;;;11.51;63.84
16030;BME280;34770;49.272;11.070;2023-06-14T03:59:47;97381.81;;;11.60;63.25
16030;BME280;34770;49.272;11.070;2023-06-14T04:02:12;97364.56;;;11.52;64.51
16030;BME280;34770;49.272;11.070;2023-06-14T04:04:40;97374.75;;;11.50;64.62
16030;BME280;34770;49.272;11.070;2023-06-14T04:07:08;97373.63;;;11.70;64.77
16030;BME280;34770;49.272;11.070;2023-06-14T04:09:33;97364.47;;;11.71;63.83
16030;BME280;34770;49.272;11.070;2023-06-14T04:11:59;97385.34;;;11.88;63.94
16030;BME280;34770;49.272;11.070;2023-06-14T04:14:24;97388.63;;;11.92;64.03
16030;BME280;34770;49.272;11.070;2023-06-14T04:16:50;97356.72;;;11.94;62.90
16030;BME280;34770;49.272;11.070;2023-06-14T04:19:15;97336.97;;;11.84;63.01
16030;BME280;34770;49.272;11.070;2023-06-14T04:21:41;97378.81;;;12.16;63.06
16030;BME280;34770;49.272;11.070;2023-06-14T04:24:07;97384.00;;;12.28;63.07
16030;BME280;34770;49.272;11.070;2023-06-14T04:26:49;97379.63;;;12.27;62.70
16030;BME280;34770;49.272;11.070;2023-06-14T04:29:14;97388.13;;;12.32;63.30
16030;BME280;34770;49.272;11.070;2023-06-14T04:31:42;97397.47;;;12.29;63.75
16030;BME280;34770;49.272;11.070;2023-06-14T04:34:08;97390.28;;;12.46;62.82
16030;BME280;34770;49.272;11.070;2023-06-14T04:36:34;97398.81;;;12.51;62.95
16030;BME280;34770;49.272;11.070;2023-06-14T04:39:02;97399.69;;;12.51;62.41
16030;BME280;34770;49.272;11.070;2023-06-14T04:41:28;97395.22;;;12.68;62.55
16030;BME280;34770;49.272;11.070;2023-06-14T04:43:57;97404.06;;;12.70;62.81
16030;BME280;34770;49.272;11.070;2023-06-14T04:46:23;97393.91;;;12.80;62.77
16030;BME280;34770;49.272;11.070;2023-06-14T04:48:49;97390.41;;;12.88;62.61
16030;BME280;34770;49.272;11.070;2023-06-14T04:51:15;97389.66;;;12.77;62.79
16030;BME280;34770;49.272;11.070;2023-06-14T04:53:41;97395.31;;;12.84;63.56
16030;BME280;34770;49.272;11.070;2023-06-14T04:56:09;97395.34;;;13.10;63.01
16030;BME280;34770;49.272;11.070;2023-06-14T04:58:35;97405.97;;;13.29;62.90
16030;BME280;34770;49.272;11.070;2023-06-14T05:01:00;97389.03;;;13.43;62.38
16030;BME280;34770;49.272;11.070;2023-06-14T05:03:26;97401.41;;;13.38;62.21
16030;BME280;34770;49.272;11.070;2023-06-14T05:05:52;97406.25;;;13.52;62.91
16030;BME280;34770;49.272;11.070;2023-06-14T05:08:18;97401.69;;;13.60;62.54
16030;BME280;34770;49.272;11.070;2023-06-14T05:10:44;97402.91;;;13.74;62.52
16030;BME280;34770;49.272;11.070;2023-06-14T05:13:09;97403.81;;;13.99;62.05
16030;BME280;34770;49.272;11.070;2023-06-14T05:15:35;97411.53;;;14.27;61.53
16030;BME280;34770;49.272;11.070;2023-06-14T05:18:01;97411.91;;;14.48;61.31
16030;BME280;34770;49.272;11.070;2023-06-14T05:20:26;97406.28;;;14.66;61.24
16030;BME280;34770;49.272;11.070;2023-06-14T05:22:55;97411.06;;;14.80;59.55
16030;BME280;34770;49.272;11.070;2023-06-14T05:25:23;97418.38;;;14.80;60.73
16030;BME280;34770;49.272;11.070;2023-06-14T05:27:48;97411.91;;;14.81;59.86
16030;BME280;34770;49.272;11.070;2023-06-14T05:30:15;97409.81;;;14.99;58.63
16030;BME280;34770;49.272;11.070;2023-06-14T05:32:40;97414.09;;;14.93;56.29
16030;BME280;34770;49.272;11.070;2023-06-14T05:35:06;97417.13;;;15.23;58.06
16030;BME280;34770;49.272;11.070;2023-06-14T05:37:32;97420.97;;;15.44;57.65
16030;BME280;34770;49.272;11.070;2023-06-14T05:39:57;97425.44;;;15.37;58.00
16030;BME280;34770;49.272;11.070;2023-06-14T05:42:23;97431.91;;;15.52;57.00
16030;BME280;34770;49.272;11.070;2023-06-14T05:44:48;97401.53;;;15.47;57.48
16030;BME280;34770;49.272;11.070;2023-06-14T05:47:13;97431.78;;;15.85;57.65
16030;BME280;34770;49.272;11.070;2023-06-14T05:49:42;97424.91;;;15.97;55.21
16030;BME280;34770;49.272;11.070;2023-06-14T05:52:08;97436.22;;;16.16;53.51
16030;BME280;34770;49.272;11.070;2023-06-14T05:54:33;97436.63;;;16.36;52.79
16030;BME280;34770;49.272;11.070;2023-06-14T05:56:58;97397.53;;;16.28;53.63
16030;BME280;34770;49.272;11.070;2023-06-14T05:59:27;97432.91;;;16.52;52.66
16030;BME280;34770;49.272;11.070;2023-06-14T06:01:52;97429.41;;;16.66;52.93
16030;BME280;34770;49.272;11.070;2023-06-14T06:04:17;97438.25;;;16.91;51.70
16030;BME280;34770;49.272;11.070;2023-06-14T06:06:43;97432.94;;;17.12;50.90
16030;BME280;34770;49.272;11.070;2023-06-14T06:09:08;97431.53;;;17.30;50.70
16030;BME280;34770;49.272;11.070;2023-06-14T06:11:33;97396.56;;;17.18;50.52
16030;BME280;34770;49.272;11.070;2023-06-14T06:13:59;97435.13;;;17.31;49.65
16030;BME280;34770;49.272;11.070;2023-06-14T06:16:24;97426.16;;;17.22;49.30
16030;BME280;34770;49.272;11.070;2023-06-14T06:18:50;97433.16;;;17.39;48.98
16030;BME280;34770;49.272;11.070;2023-06-14T06:21:15;97433.09;;;17.62;50.89
16030;BME280;34770;49.272;11.070;2023-06-14T06:23:41;97438.50;;;17.70;48.58
16030;BME280;34770;49.272;11.070;2023-06-14T06:26:06;97432.78;;;17.86;48.37
16030;BME280;34770;49.272;11.070;2023-06-14T06:28:32;97395.66;;;17.69;47.64
16030;BME280;34770;49.272;11.070;2023-06-14T06:30:57;97446.00;;;17.98;47.82
16030;BME280;34770;49.272;11.070;2023-06-14T06:33:22;97448.00;;;18.04;47.61
16030;BME280;34770;49.272;11.070;2023-06-14T06:35:48;97426.81;;;17.98;47.56
16030;BME280;34770;49.272;11.070;2023-06-14T06:38:14;97437.66;;;18.20;48.10
16030;BME280;34770;49.272;11.070;2023-06-14T06:40:39;97425.47;;;18.08;46.28
16030;BME280;34770;49.272;11.070;2023-06-14T06:43:05;97460.81;;;18.32;47.92
16030;BME280;34770;49.272;11.070;2023-06-14T06:45:30;97443.88;;;18.29;45.85
16030;BME280;34770;49.272;11.070;2023-06-14T06:47:56;97447.88;;;18.47;46.45
16030;BME280;34770;49.272;11.070;2023-06-14T06:50:21;97451.50;;;18.48;45.44
16030;BME280;34770;49.272;11.070;2023-06-14T06:52:48;97455.50;;;18.67;45.11
16030;BME280;34770;49.272;11.070;2023-06-14T06:55:14;97466.63;;;18.80;45.63
16030;BME280;34770;49.272;11.070;2023-06-14T06:57:39;97466.69;;;18.15;46.63
16030;BME280;34770;49.272;11.070;2023-06-14T07:00:06;97461.56;;;18.26;46.59
16030;BME280;34770;49.272;11.070;2023-06-14T07:02:34;97465.53;;;18.38;46.50
16030;BME280;34770;49.272;11.070;2023-06-14T07:04:59;97464.00;;;18.36;47.15
16030;BME280;34770;49.272;11.070;2023-06-14T07:07:25;97465.84;;;18.65;46.46
16030;BME280;34770;49.272;11.070;2023-06-14T07:09:50;97466.47;;;18.67;45.88
16030;BME280;34770;49.272;11.070;2023-06-14T07:12:16;97455.38;;;18.53;45.95
16030;BME280;34770;49.272;11.070;2023-06-14T07:14:41;97478.00;;;18.77;46.78
16030;BME280;34770;49.272;11.070;2023-06-14T07:17:06;97442.72;;;18.74;45.75
16030;BME280;34770;49.272;11.070;2023-06-14T07:19:32;97467.94;;;18.84;46.11
16030;BME280;34770;49.272;11.070;2023-06-14T07:21:58;97467.09;;;18.83;45.05
16030;BME280;34770;49.272;11.070;2023-06-14T07:24:23;97465.38;;;19.03;45.23
16030;BME280;34770;49.272;11.070;2023-06-14T07:26:49;97475.44;;;19.39;45.11
16030;BME280;34770;49.272;11.070;2023-06-14T07:29:14;97484.63;;;19.52;44.94
16030;BME280;34770;49.272;11.070;2023-06-14T07:31:41;97457.28;;;19.23;44.17
16030;BME280;34770;49.272;11.070;2023-06-14T07:34:06;97458.75;;;19.40;45.34
16030;BME280;34770;49.272;11.070;2023-06-14T07:36:32;97467.81;;;19.68;44.64
16030;BME280;34770;49.272;11.070;2023-06-14T07:38:57;97471.91;;;20.13;44.08
16030;BME280;34770;49.272;11.070;2023-06-14T07:41:23;97476.06;;;20.37;42.81
16030;BME280;34770;49.272;11.070;2023-06-14T07:43:52;97479.44;;;20.39;43.24
16030;BME280;34770;49.272;11.070;2023-06-14T07:46:17;97477.56;;;20.40;42.62
16030;BME280;34770;49.272;11.070;2023-06-14T07:48:42;97479.78;;;20.70;42.29
16030;BME280;34770;49.272;11.070;2023-06-14T07:51:08;97476.03;;;20.91;40.51
16030;BME280;34770;49.272;11.070;2023-06-14T07:53:33;97485.16;;;21.11;40.91
16030;BME280;34770;49.272;11.070;2023-06-14T07:55:58;97489.44;;;21.27;40.35
16030;BME280;34770;49.272;11.070;2023-06-14T07:58:25;97486.88;;;21.25;40.18
16030;BME280;34770;49.272;11.070;2023-06-14T08:00:50;97482.66;;;21.43;39.45
16030;BME280;34770;49.272;11.070;2023-06-14T08:03:16;97489.22;;;21.81;38.95
16030;BME280;34770;49.272;11.070;2023-06-14T08:05:42;97490.69;;;21.51;39.06
16030;BME280;34770;49.272;11.070;2023-06-14T08:08:08;97461.22;;;21.71;38.28
16030;BME280;34770;49.272;11.070;2023-06-14T08:13:09;97488.50;;;22.25;36.71
16030;BME280;34770;49.272;11.070;2023-06-14T08:15:35;97494.13;;;22.49;35.90
16030;BME280;34770;49.272;11.070;2023-06-14T08:18:00;97491.13;;;22.71;35.63
16030;BME280;34770;49.272;11.070;2023-06-14T08:20:26;97483.03;;;22.69;35.33
16030;BME280;34770;49.272;11.070;2023-06-14T08:22:51;97497.94;;;22.99;33.88
16030;BME280;34770;49.272;11.070;2023-06-14T08:25:20;97480.56;;;22.92;33.42
16030;BME280;34770;49.272;11.070;2023-06-14T08:27:46;97489.72;;;23.24;34.59
16030;BME280;34770;49.272;11.070;2023-06-14T08:30:11;97483.53;;;23.22;34.17
16030;BME280;34770;49.272;11.070;2023-06-14T08:32:37;97470.63;;;23.47;33.12
16030;BME280;34770;49.272;11.070;2023-06-14T08:35:03;97470.16;;;22.88;34.81
16030;BME280;34770;49.272;11.070;2023-06-14T08:37:29;97487.56;;;23.57;35.91
16030;BME280;34770;49.272;11.070;2023-06-14T08:39:55;97494.03;;;23.70;34.43
16030;BME280;34770;49.272;11.070;2023-06-14T08:42:22;97484.34;;;23.85;33.36
16030;BME280;34770;49.272;11.070;2023-06-14T08:44:49;97480.03;;;23.89;32.21
16030;BME280;34770;49.272;11.070;2023-06-14T08:47:15;97484.22;;;23.18;30.88
16030;BME280;34770;49.272;11.070;2023-06-14T08:49:45;97483.78;;;23.21;31.50
16030;BME280;34770;49.272;11.070;2023-06-14T08:52:13;97488.56;;;23.88;31.18
16030;BME280;34770;49.272;11.070;2023-06-14T08:54:40;97489.97;;;23.72;31.92
16030;BME280;34770;49.272;11.070;2023-06-14T08:57:11;97493.94;;;23.83;31.88
16030;BME280;34770;49.272;11.070;2023-06-14T08:59:45;97487.88;;;23.49;31.07
16030;BME280;34770;49.272;11.070;2023-06-14T09:02:12;97483.03;;;23.38;32.15
16030;BME280;34770;49.272;11.070;2023-06-14T09:04:40;97488.88;;;23.24;31.82
16030;BME280;34770;49.272;11.070;2023-06-14T09:07:05;97488.72;;;22.81;33.04
16030;BME280;34770;49.272;11.070;2023-06-14T09:09:31;97486.41;;;23.09;32.06
16030;BME280;34770;49.272;11.070;2023-06-14T09:11:57;97484.81;;;23.26;32.99
16030;BME280;34770;49.272;11.070;2023-06-14T09:14:24;97489.66;;;24.05;32.30
16030;BME280;34770;49.272;11.070;2023-06-14T09:16:54;97493.47;;;24.65;30.50
16030;BME280;34770;49.272;11.070;2023-06-14T09:19:25;97475.34;;;24.33;31.78
16030;BME280;34770;49.272;11.070;2023-06-14T09:21:52;97492.03;;;24.44;31.03
16030;BME280;34770;49.272;11.070;2023-06-14T09:24:18;97496.88;;;24.06;30.98
16030;BME280;34770;49.272;11.070;2023-06-14T09:26:47;97495.28;;;23.98;31.44
16030;BME280;34770;49.272;11.070;2023-06-14T09:29:13;97477.66;;;23.93;31.96
16030;BME280;34770;49.272;11.070;2023-06-14T09:31:38;97499.06;;;23.79;33.22
16030;BME280;34770;49.272;11.070;2023-06-14T09:34:04;97492.38;;;23.37;33.63
16030;BME280;34770;49.272;11.070;2023-06-14T09:36:31;97501.88;;;23.17;34.01
16030;BME280;34770;49.272;11.070;2023-06-14T09:38:59;97492.41;;;22.99;33.72
16030;BME280;34770;49.272;11.070;2023-06-14T09:41:38;97501.00;;;23.23;33.63
16030;BME280;34770;49.272;11.070;2023-06-14T09:44:06;97504.50;;;23.05;33.92
16030;BME280;34770;49.272;11.070;2023-06-14T09:46:32;97503.97;;;22.90;34.84
16030;BME280;34770;49.272;11.070;2023-06-14T09:48:58;97499.84;;;22.68;34.47
16030;BME280;34770;49.272;11.070;2023-06-14T09:51:25;97500.28;;;22.51;38.18
16030;BME280;34770;49.272;11.070;2023-06-14T09:53:52;97507.19;;;22.23;40.20
16030;BME280;34770;49.272;11.070;2023-06-14T09:56:23;97512.69;;;22.29;39.87
16030;BME280;34770;49.272;11.070;2023-06-14T09:58:54;97523.97;;;22.21;37.44
16030;BME280;34770;49.272;11.070;2023-06-14T10:01:21;97513.78;;;22.22;35.67
16030;BME280;34770;49.272;11.070;2023-06-14T10:03:50;97507.34;;;22.34;35.38
16030;BME280;34770;49.272;11.070;2023-06-14T10:06:19;97504.63;;;22.28;36.41
16030;BME280;34770;49.272;11.070;2023-06-14T10:08:50;97505.72;;;22.20;35.59
16030;BME280;34770;49.272;11.070;2023-06-14T10:11:17;97507.09;;;22.49;36.47
16030;BME280;34770;49.272;11.070;2023-06-14T10:13:42;97510.88;;;22.54;39.76
16030;BME280;34770;49.272;11.070;2023-06-14T10:16:23;97501.19;;;22.45;34.84
16030;BME280;34770;49.272;11.070;2023-06-14T10:23:52;97490.66;;;22.74;35.34
16030;BME280;34770;49.272;11.070;2023-06-14T10:26:22;97501.41;;;23.57;34.74
16030;BME280;34770;49.272;11.070;2023-06-14T10:29:11;97505.19;;;23.32;34.82
16030;BME280;34770;49.272;11.070;2023-06-14T10:31:47;97514.16;;;22.89;35.79
16030;BME280;34770;49.272;11.070;2023-06-14T10:34:24;97510.56;;;22.89;37.11
16030;BME280;34770;49.272;11.070;2023-06-14T10:37:12;97516.53;;;22.79;38.17
16030;BME280;34770;49.272;11.070;2023-06-14T10:39:39;97512.78;;;22.61;37.72
16030;BME280;34770;49.272;11.070;2023-06-14T10:42:09;97509.81;;;22.69;36.87
16030;BME280;34770;49.272;11.070;2023-06-14T10:44:38;97508.97;;;22.62;38.40
16030;BME280;34770;49.272;11.070;2023-06-14T10:49:50;97522.53;;;22.63;37.09
16030;BME280;34770;49.272;11.070;2023-06-14T10:52:19;97519.53;;;22.84;37.07
16030;BME280;34770;49.272;11.070;2023-06-14T10:58:03;97513.31;;;22.89;39.09
16030;BME280;34770;49.272;11.070;2023-06-14T11:00:29;97511.16;;;22.91;36.46
16030;BME280;34770;49.272;11.070;2023-06-14T11:05:59;97515.94;;;23.15;37.96
16030;BME280;34770;49.272;11.070;2023-06-14T11:11:22;97504.75;;;22.97;35.58
16030;BME280;34770;49.272;11.070;2023-06-14T11:13:49;97503.63;;;22.73;35.94
16030;BME280;34770;49.272;11.070;2023-06-14T11:16:16;97505.28;;;22.81;37.25
16030;BME280;34770;49.272;11.070;2023-06-14T11:18:42;97501.81;;;22.98;35.57
16030;BME280;34770;49.272;11.070;2023-06-14T11:21:09;97504.88;;;23.15;36.09
16030;BME280;34770;49.272;11.070;2023-06-14T11:23:35;97504.34;;;23.31;37.24
16030;BME280;34770;49.272;11.070;2023-06-14T11:26:01;97500.91;;;23.04;38.83
16030;BME280;34770;49.272;11.070;2023-06-14T11:28:37;97505.28;;;22.81;36.34
16030;BME280;34770;49.272;11.070;2023-06-14T11:31:03;97507.78;;;22.89;36.13
16030;BME280;34770;49.272;11.070;2023-06-14T11:33:29;97491.00;;;23.22;35.56
16030;BME280;34770;49.272;11.070;2023-06-14T11:35:54;97504.53;;;23.61;36.55
16030;BME280;34770;49.272;11.070;2023-06-14T11:38:20;97506.69;;;23.59;34.53
16030;BME280;34770;49.272;11.070;2023-06-14T11:40:45;97509.50;;;23.52;33.85
16030;BME280;34770;49.272;11.070;2023-06-14T11:43:11;97509.13;;;23.49;34.27
16030;BME280;34770;49.272;11.070;2023-06-14T11:45:37;97516.41;;;23.43;33.78
16030;BME280;34770;49.272;11.070;2023-06-14T11:48:03;97504.53;;;23.61;35.16
16030;BME280;34770;49.272;11.070;2023-06-14T11:50:28;97494.50;;;23.66;34.15
16030;BME280;34770;49.272;11.070;2023-06-14T11:52:59;97490.63;;;23.74;35.59
16030;BME280;34770;49.272;11.070;2023-06-14T11:55:39;97504.53;;;23.61;33.62
16030;BME280;34770;49.272;11.070;2023-06-14T11:58:06;97498.19;;;23.60;33.55
16030;BME280;34770;49.272;11.070;2023-06-14T12:00:31;97502.78;;;23.66;33.13
16030;BME280;34770;49.272;11.070;2023-06-14T12:02:57;97494.09;;;23.88;32.91
16030;BME280;34770;49.272;11.070;2023-06-14T12:05:23;97495.03;;;24.25;33.03
16030;BME280;34770;49.272;11.070;2023-06-14T12:07:50;97488.78;;;24.65;32.67
16030;BME280;34770;49.272;11.070;2023-06-14T12:10:16;97483.03;;;24.06;31.58
16030;BME280;34770;49.272;11.070;2023-06-14T12:12:42;97479.44;;;24.78;31.90
16030;BME280;34770;49.272;11.070;2023-06-14T12:15:08;97479.28;;;24.91;31.56
16030;BME280;34770;49.272;11.070;2023-06-14T12:17:36;97483.28;;;25.89;30.66
16030;BME280;34770;49.272;11.070;2023-06-14T12:20:08;97491.84;;;26.11;29.76
16030;BME280;34770;49.272;11.070;2023-06-14T12:22:39;97487.16;;;25.88;29.82
16030;BME280;34770;49.272;11.070;2023-06-14T12:25:05;97494.31;;;26.08;30.29
16030;BME280;34770;49.272;11.070;2023-06-14T12:27:30;97482.78;;;25.69;29.70
16030;BME280;34770;49.272;11.070;2023-06-14T12:30:03;97486.78;;;25.62;29.56
16030;BME280;34770;49.272;11.070;2023-06-14T12:32:29;97484.00;;;25.62;29.55
16030;BME280;34770;49.272;11.070;2023-06-14T12:34:55;97490.66;;;25.84;30.04
16030;BME280;34770;49.272;11.070;2023-06-14T12:37:20;97497.31;;;26.41;28.71
16030;BME280;34770;49.272;11.070;2023-06-14T12:39:46;97476.63;;;26.02;29.20
16030;BME280;34770;49.272;11.070;2023-06-14T12:42:11;97486.69;;;26.26;30.08
16030;BME280;34770;49.272;11.070;2023-06-14T12:44:38;97483.84;;;26.61;28.23
16030;BME280;34770;49.272;11.070;2023-06-14T12:47:06;97472.19;;;26.87;28.70
16030;BME280;34770;49.272;11.070;2023-06-14T12:49:32;97486.63;;;27.57;27.54
16030;BME280;34770;49.272;11.070;2023-06-14T12:51:58;97478.94;;;28.69;26.00
16030;BME280;34770;49.272;11.070;2023-06-14T12:54:23;97483.28;;;28.05;26.08
16030;BME280;34770;49.272;11.070;2023-06-14T12:56:51;97486.56;;;27.86;27.07
16030;BME280;34770;49.272;11.070;2023-06-14T12:59:17;97493.97;;;27.63;27.02
16030;BME280;34770;49.272;11.070;2023-06-14T13:01:43;97492.59;;;26.93;26.72
16030;BME280;34770;49.272;11.070;2023-06-14T13:04:09;97496.75;;;26.67;27.47
16030;BME280;34770;49.272;11.070;2023-06-14T13:06:35;97499.38;;;26.34;27.25
16030;BME280;34770;49.272;11.070;2023-06-14T13:09:00;97491.03;;;26.34;29.11